createdAt,value
2023-01-08T00:04:20.078Z,6.2
2023-01-08T00:10:03.173Z,5.3
2023-01-08T00:15:46.109Z,4.6
2023-01-08T00:21:28.870Z,5.9
2023-01-08T00:27:11.719Z,7
2023-01-08T00:32:54.434Z,5.1
2023-01-08T00:38:37.371Z,6.5
2023-01-08T00:44:20.030Z,6.1
2023-01-08T00:50:03.188Z,5.3
2023-01-08T00:55:47.131Z,5.4
2023-01-08T01:01:30.650Z,6.4
2023-01-08T01:07:13.667Z,6.2
2023-01-08T01:12:56.577Z,5.6
2023-01-08T01:18:39.338Z,5
2023-01-08T01:24:22.379Z,5.7
2023-01-08T01:30:05.448Z,4.6
2023-01-08T01:35:48.323Z,5
2023-01-08T01:41:32.863Z,5.4
2023-01-08T01:47:22.863Z,4.9
2023-01-08T01:53:09.743Z,5.5
2023-01-08T01:58:52.769Z,5.4
2023-01-08T02:04:36.010Z,4.6
2023-01-08T02:10:21.501Z,4.5
2023-01-08T02:16:09.278Z,6.1
2023-01-08T02:21:56.000Z,3.5
2023-01-08T02:27:40.481Z,5.8
2023-01-08T02:33:25.210Z,4.5
2023-01-08T02:39:16.002Z,4.6
2023-01-08T02:45:05.110Z,5.7
2023-01-08T02:50:52.907Z,5.8
2023-01-08T02:56:38.054Z,4.2
2023-01-08T03:02:28.282Z,6.7
2023-01-08T03:08:12.007Z,3.5
2023-01-08T03:13:59.463Z,3.7
2023-01-08T03:19:43.183Z,4.1
2023-01-08T03:25:27.433Z,3.1
2023-01-08T03:31:11.444Z,4
2023-01-08T03:36:56.487Z,4
2023-01-08T03:42:39.463Z,4.4
2023-01-08T03:48:23.359Z,3.4
2023-01-08T03:54:06.623Z,3.1
2023-01-08T03:59:49.581Z,3.7
2023-01-08T04:05:32.829Z,3
2023-01-08T04:11:15.704Z,3.6
2023-01-08T04:16:58.467Z,2.6
2023-01-08T04:22:41.286Z,2.8
2023-01-08T04:28:24.339Z,3.6
2023-01-08T04:34:08.324Z,3.7
2023-01-08T04:39:51.168Z,5.5
2023-01-08T04:45:33.941Z,4
2023-01-08T04:51:16.834Z,4.6
2023-01-08T04:56:59.785Z,5.7
2023-01-08T05:02:43.454Z,6.1
2023-01-08T05:08:26.545Z,4.8
2023-01-08T05:14:09.543Z,4.1
2023-01-08T05:19:52.340Z,5.2
2023-01-08T05:25:35.492Z,4.6
2023-01-08T05:31:19.052Z,4.8
2023-01-08T05:37:02.209Z,4.6
2023-01-08T05:42:45.106Z,4
2023-01-08T05:48:28.313Z,4.5
2023-01-08T05:54:11.147Z,4.2
2023-01-08T05:59:53.904Z,2.6
2023-01-08T06:05:36.775Z,3.8
2023-01-08T06:11:19.811Z,5.4
2023-01-08T06:17:02.617Z,4.8
2023-01-08T06:22:45.630Z,4.9
2023-01-08T06:28:28.533Z,4.4
2023-01-08T06:34:11.420Z,4.1
2023-01-08T06:39:54.583Z,6.4
2023-01-08T06:45:38.655Z,4.8
2023-01-08T06:51:21.399Z,4.7
2023-01-08T06:57:04.521Z,5.4
2023-01-08T07:02:48.148Z,5.4
2023-01-08T07:08:31.145Z,4.4
2023-01-08T07:14:14.079Z,4.9
2023-01-08T07:19:57.057Z,6.2
2023-01-08T07:25:40.100Z,7
2023-01-08T07:31:23.129Z,4.1
2023-01-08T07:37:07.892Z,4.3
2023-01-08T07:42:50.705Z,6.5
2023-01-08T07:48:33.558Z,5.2
2023-01-08T07:54:16.530Z,3.1
2023-01-08T07:59:59.248Z,4.2
2023-01-08T08:05:43.084Z,4.9
2023-01-08T08:11:26.055Z,6.1
2023-01-08T08:17:08.819Z,6
2023-01-08T08:22:51.648Z,3.1
2023-01-08T08:28:34.312Z,3.7
2023-01-08T08:34:17.353Z,3.6
2023-01-08T08:40:00.439Z,3.1
2023-01-08T08:45:43.245Z,4.4
2023-01-08T08:51:26.383Z,3.3
2023-01-08T08:57:09.232Z,3.8
2023-01-08T09:02:52.594Z,2.6
2023-01-08T09:08:35.742Z,4.8
2023-01-08T09:14:18.541Z,4.3
2023-01-08T09:20:01.514Z,5
2023-01-08T09:25:44.323Z,4.5
2023-01-08T09:31:27.419Z,3.8
2023-01-08T09:37:10.423Z,5.3
2023-01-08T09:42:58.269Z,3.3
2023-01-08T09:48:41.861Z,5
2023-01-08T09:54:28.035Z,3.7
2023-01-08T10:00:17.050Z,6
2023-01-08T10:06:00.177Z,5
2023-01-08T10:11:44.682Z,3.7
2023-01-08T10:17:30.493Z,3.7
2023-01-08T10:23:17.867Z,5.4
2023-01-08T10:29:15.465Z,3.3
2023-01-08T10:34:59.026Z,4.6
2023-01-08T10:40:44.238Z,4.8
2023-01-08T10:46:28.952Z,2.9
2023-01-08T10:52:25.635Z,1.5
2023-01-08T10:58:13.836Z,4
2023-01-08T11:03:58.740Z,2.4
2023-01-08T11:09:48.872Z,3.8
2023-01-08T11:15:36.550Z,3.1
2023-01-08T11:21:25.652Z,3.4
2023-01-08T11:27:11.960Z,5.6
2023-01-08T11:32:58.710Z,3.5
2023-01-08T11:38:41.604Z,4.9
2023-01-08T11:44:31.370Z,3.6
2023-01-08T11:50:24.258Z,4.7
2023-01-08T11:56:14.376Z,3.6
2023-01-08T12:02:08.294Z,4.5
2023-01-08T12:07:53.590Z,5.5
2023-01-08T12:13:51.751Z,5.3
2023-01-08T12:19:41.483Z,3.9
2023-01-08T12:25:36.310Z,4.6
2023-01-08T12:31:32.862Z,5
2023-01-08T12:37:20.232Z,2.8
2023-01-08T12:43:07.850Z,5.5
2023-01-08T12:48:54.433Z,4.1
2023-01-08T12:54:43.451Z,3.5
2023-01-08T13:00:29.595Z,3.7
2023-01-08T13:06:14.530Z,4.7
2023-01-08T13:11:58.683Z,2.7
2023-01-08T13:17:41.468Z,3.9
2023-01-08T13:23:28.933Z,4.7
2023-01-08T13:29:25.950Z,4.4
2023-01-08T13:35:17.349Z,3.5
2023-01-08T13:41:00.751Z,3.9
2023-01-08T13:46:43.796Z,3.3
2023-01-08T13:52:43.925Z,4
2023-01-08T13:58:29.639Z,3.6
2023-01-08T14:04:17.985Z,3.9
2023-01-08T14:10:05.971Z,7.1
2023-01-08T14:15:50.498Z,3.8
2023-01-08T14:21:33.511Z,3.3
2023-01-08T14:27:22.496Z,3.9
2023-01-08T14:33:06.471Z,3.8
2023-01-08T14:38:49.603Z,4.2
2023-01-08T14:44:43.528Z,6.9
2023-01-08T14:50:27.385Z,9.2
2023-01-08T14:56:14.690Z,7.2
2023-01-08T15:02:02.237Z,7.9
2023-01-08T15:07:52.931Z,6.8
2023-01-08T15:13:39.104Z,5.4
2023-01-08T15:19:25.323Z,9.1
2023-01-08T15:25:09.480Z,7.5
2023-01-08T15:30:52.596Z,6.8
2023-01-08T15:36:35.357Z,4.3
2023-01-08T15:42:23.452Z,4.5
2023-01-08T15:48:07.330Z,5
2023-01-08T15:53:50.282Z,3.9
2023-01-08T15:59:33.219Z,7.3
2023-01-08T16:05:17.147Z,7.5
2023-01-08T16:11:00.435Z,5.6
2023-01-08T16:16:43.609Z,7.5
2023-01-08T16:22:26.370Z,6.2
2023-01-08T16:28:09.190Z,6.6
2023-01-08T16:33:51.997Z,4.3
2023-01-08T16:39:34.754Z,5.9
2023-01-08T16:45:17.803Z,7.5
2023-01-08T16:51:05.629Z,6.5
2023-01-08T16:56:49.245Z,6.4
2023-01-08T17:02:32.141Z,6.6
2023-01-08T17:08:14.810Z,4.7
2023-01-08T17:13:57.740Z,6.3
2023-01-08T17:19:40.509Z,7.6
2023-01-08T17:25:23.501Z,5
2023-01-08T17:31:09.058Z,5.4
2023-01-08T17:36:51.773Z,4.3
2023-01-08T17:42:34.745Z,4.2
2023-01-08T17:48:17.537Z,5.2
2023-01-08T17:54:00.649Z,5.2
2023-01-08T17:59:44.622Z,6.6
2023-01-08T18:05:27.539Z,4.9
2023-01-08T18:11:11.988Z,5.7
2023-01-08T18:16:55.081Z,3.4
2023-01-08T18:22:37.873Z,4
2023-01-08T18:28:20.768Z,4.3
2023-01-08T18:34:03.746Z,3.4
2023-01-08T18:39:46.592Z,4.3
2023-01-08T18:45:29.663Z,3.9
2023-01-08T18:51:12.693Z,3.2
2023-01-08T18:56:55.525Z,5.4
2023-01-08T19:02:39.456Z,5.7
2023-01-08T19:08:22.304Z,4
2023-01-08T19:14:05.302Z,3.7
2023-01-08T19:19:48.256Z,3.2
2023-01-08T19:25:31.065Z,3.8
2023-01-08T19:31:17.008Z,4.4
2023-01-08T19:36:59.839Z,4.1
2023-01-08T19:42:42.630Z,3.2
2023-01-08T19:48:25.623Z,4.4
2023-01-08T19:54:09.463Z,3.9
2023-01-08T19:59:52.730Z,3.6
2023-01-08T20:05:35.662Z,4.4
2023-01-08T20:11:19.426Z,4.4
2023-01-08T20:17:02.662Z,3.3
2023-01-08T20:22:46.360Z,4.2
2023-01-08T20:28:29.797Z,3.8
2023-01-08T20:34:14.955Z,4.1
2023-01-08T20:39:58.072Z,4.7
2023-01-08T20:45:41.755Z,4.3
2023-01-08T20:51:24.805Z,3.5
2023-01-08T20:57:07.721Z,4.1
2023-01-08T21:02:50.602Z,3.5
2023-01-08T21:08:34.856Z,4.4
2023-01-08T21:14:19.078Z,5.3
2023-01-08T21:20:02.929Z,3
2023-01-08T21:25:47.327Z,2.5
2023-01-08T21:31:30.869Z,3.2
2023-01-08T21:37:13.941Z,2.7
2023-01-08T21:42:56.919Z,3.3
2023-01-08T21:48:40.404Z,2.5
2023-01-08T21:54:23.574Z,1
2023-01-08T22:00:06.729Z,2.4
2023-01-08T22:05:54.634Z,1.7
2023-01-08T22:11:39.584Z,2
2023-01-08T22:17:22.328Z,1.1
2023-01-08T22:23:05.065Z,1.3
2023-01-08T22:28:48.527Z,1.7
2023-01-08T22:34:32.908Z,1.1
2023-01-08T22:40:16.613Z,1.3
2023-01-08T22:46:01.444Z,1.4
2023-01-08T22:51:45.016Z,1.1
2023-01-08T22:57:27.827Z,1.8
2023-01-08T23:03:10.870Z,1.2
2023-01-08T23:08:53.703Z,1.2
2023-01-08T23:14:36.513Z,0.9
2023-01-08T23:20:19.110Z,0.8
2023-01-08T23:26:06.895Z,1.3
2023-01-08T23:31:49.978Z,1.1
2023-01-08T23:37:32.719Z,1.2
2023-01-08T23:43:15.432Z,1.2
2023-01-08T23:48:59.153Z,1.5
2023-01-08T23:54:42.016Z,0.8
